createdAt,value
2023-01-13T00:00:55.101Z,10.84
2023-01-13T00:03:22.358Z,10.88
2023-01-13T00:05:49.712Z,10.87
2023-01-13T00:08:17.105Z,10.74
2023-01-13T00:10:48.269Z,10.80
2023-01-13T00:13:15.871Z,10.80
2023-01-13T00:15:43.543Z,10.77
2023-01-13T00:18:11.085Z,10.77
2023-01-13T00:20:38.463Z,10.73
2023-01-13T00:23:05.940Z,10.79
2023-01-13T00:25:33.307Z,10.76
2023-01-13T00:28:00.880Z,10.71
2023-01-13T00:30:28.614Z,10.64
2023-01-13T00:32:56.096Z,10.57
2023-01-13T00:35:23.362Z,10.62
2023-01-13T00:37:50.702Z,10.64
2023-01-13T00:40:18.056Z,10.72
2023-01-13T00:43:04.044Z,10.76
2023-01-13T00:45:31.450Z,10.70
2023-01-13T00:47:58.826Z,10.72
2023-01-13T00:50:27.073Z,10.71
2023-01-13T00:52:54.561Z,10.78
2023-01-13T00:55:22.149Z,10.85
2023-01-13T00:57:49.565Z,10.84
2023-01-13T01:00:17.592Z,10.73
2023-01-13T01:02:45.088Z,10.77
2023-01-13T01:05:12.726Z,10.85
2023-01-13T01:07:40.093Z,10.92
2023-01-13T01:10:07.596Z,10.90
2023-01-13T01:12:35.062Z,10.80
2023-01-13T01:15:04.304Z,10.72
2023-01-13T01:17:31.926Z,10.62
2023-01-13T01:19:59.507Z,10.62
2023-01-13T01:22:27.002Z,10.57
2023-01-13T01:24:54.503Z,10.53
2023-01-13T01:27:21.750Z,10.56
2023-01-13T01:29:49.242Z,10.58
2023-01-13T01:32:16.647Z,10.45
2023-01-13T01:34:44.109Z,10.50
2023-01-13T01:37:11.477Z,10.46
2023-01-13T01:39:38.920Z,10.49
2023-01-13T01:42:24.938Z,10.36
2023-01-13T01:44:58.988Z,10.41
2023-01-13T01:47:28.173Z,10.34
2023-01-13T01:49:56.694Z,10.28
2023-01-13T01:52:33.808Z,10.34
2023-01-13T01:55:10.528Z,10.36
2023-01-13T01:57:43.916Z,10.20
2023-01-13T02:00:12.896Z,10.18
2023-01-13T02:02:43.760Z,10.27
2023-01-13T02:05:11.863Z,10.21
2023-01-13T02:07:41.357Z,10.25
2023-01-13T02:10:11.893Z,10.19
2023-01-13T02:12:40.874Z,10.09
2023-01-13T02:15:37.156Z,9.89
2023-01-13T02:18:41.421Z,9.95
2023-01-13T02:21:39.617Z,10.04
2023-01-13T02:24:56.454Z,10.01
2023-01-13T02:27:43.979Z,9.94
2023-01-13T02:30:56.895Z,9.88
2023-01-13T02:33:42.539Z,9.86
2023-01-13T02:36:43.757Z,9.94
2023-01-13T02:39:26.164Z,9.76
2023-01-13T02:42:29.114Z,9.76
2023-01-13T02:45:01.375Z,9.77
2023-01-13T02:47:32.746Z,9.73
2023-01-13T02:50:03.972Z,9.61
2023-01-13T02:52:52.388Z,9.63
2023-01-13T02:55:34.913Z,9.64
2023-01-13T02:58:06.417Z,9.66
2023-01-13T03:00:35.340Z,9.59
2023-01-13T03:03:03.700Z,9.57
2023-01-13T03:05:33.296Z,9.71
2023-01-13T03:08:22.264Z,9.72
2023-01-13T03:11:16.266Z,9.79
2023-01-13T03:14:06.548Z,9.99
2023-01-13T03:16:40.023Z,10.14
2023-01-13T03:19:28.995Z,10.12
2023-01-13T03:22:07.972Z,10.19
2023-01-13T03:24:42.926Z,10.16
2023-01-13T03:27:37.646Z,10.19
2023-01-13T03:30:17.608Z,10.20
2023-01-13T03:32:57.184Z,10.18
2023-01-13T03:35:32.767Z,10.06
2023-01-13T03:38:06.640Z,10.16
2023-01-13T03:40:39.529Z,10.06
2023-01-13T03:43:31.745Z,10.09
2023-01-13T03:46:05.077Z,9.94
2023-01-13T03:48:36.061Z,9.98
2023-01-13T03:51:07.689Z,10.04
2023-01-13T03:53:40.268Z,10.09
2023-01-13T03:56:22.848Z,10.01
2023-01-13T03:58:52.996Z,10.07
2023-01-13T04:01:26.400Z,10.11
2023-01-13T04:04:29.283Z,10.08
2023-01-13T04:07:46.525Z,10.08
2023-01-13T04:10:19.951Z,10.12
2023-01-13T04:13:01.985Z,10.14
2023-01-13T04:15:42.557Z,10.14
2023-01-13T04:18:20.474Z,10.20
2023-01-13T04:20:50.632Z,10.21
2023-01-13T04:23:19.604Z,10.17
2023-01-13T04:25:48.130Z,10.11
2023-01-13T04:28:16.588Z,10.10
2023-01-13T04:30:44.575Z,10.08
2023-01-13T04:33:13.209Z,9.98
2023-01-13T04:35:41.411Z,9.98
2023-01-13T04:38:11.904Z,9.93
2023-01-13T04:40:40.654Z,10.02
2023-01-13T04:43:08.084Z,10.01
2023-01-13T04:45:35.398Z,10.03
2023-01-13T04:48:02.871Z,9.95
2023-01-13T04:50:30.757Z,9.94
2023-01-13T04:52:58.339Z,9.93
2023-01-13T04:55:26.002Z,9.94
2023-01-13T04:57:53.949Z,9.94
2023-01-13T05:00:23.124Z,10.01
2023-01-13T05:02:51.726Z,10.00
2023-01-13T05:05:19.396Z,9.96
2023-01-13T05:07:47.013Z,9.98
2023-01-13T05:10:14.584Z,9.99
2023-01-13T05:13:00.733Z,10.03
2023-01-13T05:15:47.152Z,10.12
2023-01-13T05:18:15.101Z,10.12
2023-01-13T05:20:42.775Z,10.11
2023-01-13T05:23:28.461Z,10.01
2023-01-13T05:25:56.297Z,10.02
2023-01-13T05:28:23.740Z,10.01
2023-01-13T05:30:52.657Z,10.04
2023-01-13T05:33:20.840Z,9.87
2023-01-13T05:35:51.862Z,9.87
2023-01-13T05:38:19.379Z,9.82
2023-01-13T05:41:05.419Z,9.98
2023-01-13T05:43:33.378Z,9.95
2023-01-13T05:46:03.622Z,9.90
2023-01-13T05:48:33.989Z,9.78
2023-01-13T05:51:03.337Z,9.73
2023-01-13T05:53:31.827Z,9.74
2023-01-13T05:55:59.904Z,9.74
2023-01-13T05:58:28.163Z,9.74
2023-01-13T06:01:03.487Z,9.72
2023-01-13T06:03:31.326Z,9.68
2023-01-13T06:06:01.856Z,9.59
2023-01-13T06:08:30.376Z,9.57
2023-01-13T06:10:57.806Z,9.40
2023-01-13T06:13:25.867Z,9.38
2023-01-13T06:16:00.003Z,9.42
2023-01-13T06:18:28.484Z,9.34
2023-01-13T06:20:56.330Z,9.46
2023-01-13T06:23:24.364Z,9.39
2023-01-13T06:26:10.467Z,9.37
2023-01-13T06:28:38.125Z,9.39
2023-01-13T06:31:08.791Z,9.40
2023-01-13T06:33:43.734Z,9.28
2023-01-13T06:36:15.691Z,9.26
2023-01-13T06:38:47.665Z,9.34
2023-01-13T06:41:16.258Z,9.30
2023-01-13T06:43:43.825Z,9.32
2023-01-13T06:46:11.383Z,9.18
2023-01-13T06:48:38.919Z,9.31
2023-01-13T06:51:06.600Z,9.28
2023-01-13T06:53:34.018Z,9.16
2023-01-13T06:56:01.641Z,9.20
2023-01-13T06:58:28.977Z,9.20
2023-01-13T07:01:00.340Z,9.12
2023-01-13T07:03:28.081Z,9.05
2023-01-13T07:05:56.223Z,9.00
2023-01-13T07:08:24.667Z,9.11
2023-01-13T07:10:53.155Z,9.11
2023-01-13T07:13:39.084Z,9.04
2023-01-13T07:16:08.575Z,9.03
2023-01-13T07:18:36.326Z,9.01
2023-01-13T07:21:06.314Z,8.92
2023-01-13T07:23:36.655Z,8.96
2023-01-13T07:26:05.357Z,8.93
2023-01-13T07:28:33.278Z,8.95
2023-01-13T07:31:01.539Z,8.94
2023-01-13T07:33:33.219Z,8.80
2023-01-13T07:36:03.983Z,8.88
2023-01-13T07:38:33.812Z,8.92
2023-01-13T07:41:40.556Z,8.85
2023-01-13T07:44:10.864Z,8.72
2023-01-13T07:46:39.570Z,8.62
2023-01-13T07:49:07.539Z,8.74
2023-01-13T07:51:38.627Z,8.75
2023-01-13T07:54:06.661Z,8.81
2023-01-13T07:56:34.313Z,8.81
2023-01-13T07:59:02.222Z,8.75
2023-01-13T08:01:32.227Z,8.86
2023-01-13T08:04:00.071Z,8.74
2023-01-13T08:06:27.840Z,8.84
2023-01-13T08:08:55.619Z,8.81
2023-01-13T08:11:23.730Z,9.10
2023-01-13T08:13:55.918Z,9.23
2023-01-13T08:16:23.887Z,9.33
2023-01-13T08:18:51.466Z,9.43
2023-01-13T08:21:19.121Z,9.68
2023-01-13T08:23:46.608Z,9.90
2023-01-13T08:26:17.303Z,10.16
2023-01-13T08:28:45.992Z,10.38
2023-01-13T08:31:16.406Z,10.59
2023-01-13T08:33:44.598Z,10.85
2023-01-13T08:36:12.800Z,11.00
2023-01-13T08:38:41.576Z,11.19
2023-01-13T08:41:14.521Z,11.35
2023-01-13T08:43:42.173Z,11.81
2023-01-13T08:46:09.983Z,12.27
2023-01-13T08:48:38.261Z,12.74
2023-01-13T08:51:09.185Z,13.13
2023-01-13T08:53:36.936Z,13.32
2023-01-13T08:56:11.779Z,13.28
2023-01-13T08:58:40.788Z,13.13
2023-01-13T09:01:10.124Z,13.14
2023-01-13T09:03:39.215Z,13.21
2023-01-13T09:06:06.855Z,12.94
2023-01-13T09:08:34.493Z,12.71
2023-01-13T09:11:22.157Z,12.62
2023-01-13T09:13:49.663Z,12.42
2023-01-13T09:16:17.133Z,12.23
2023-01-13T09:18:44.684Z,12.01
2023-01-13T09:21:21.136Z,11.81
2023-01-13T09:23:50.724Z,11.61
2023-01-13T09:26:21.724Z,11.48
2023-01-13T09:28:49.471Z,11.34
2023-01-13T09:31:17.121Z,11.30
2023-01-13T09:34:03.139Z,11.40
2023-01-13T09:36:30.676Z,11.41
2023-01-13T09:38:58.057Z,11.47
2023-01-13T09:41:47.667Z,11.51
2023-01-13T09:44:29.348Z,11.46
2023-01-13T09:47:02.604Z,11.51
2023-01-13T09:49:42.485Z,11.52
2023-01-13T09:52:25.139Z,11.47
2023-01-13T09:55:01.072Z,11.36
2023-01-13T09:57:32.525Z,11.26
2023-01-13T10:00:00.149Z,11.27
2023-01-13T10:02:46.601Z,11.48
2023-01-13T10:06:01.209Z,12.00
2023-01-13T10:08:34.974Z,12.24
2023-01-13T10:11:37.720Z,12.47
2023-01-13T10:14:19.596Z,12.62
2023-01-13T10:16:53.000Z,12.75
2023-01-13T10:19:45.726Z,12.91
2023-01-13T10:22:15.928Z,13.09
2023-01-13T10:24:49.528Z,13.25
2023-01-13T10:27:37.012Z,13.27
2023-01-13T10:30:16.339Z,13.01
2023-01-13T10:32:48.170Z,13.03
2023-01-13T10:35:15.869Z,13.03
2023-01-13T10:37:57.148Z,13.27
2023-01-13T10:40:26.089Z,13.46
2023-01-13T10:43:06.641Z,13.67
2023-01-13T10:45:34.276Z,13.77
2023-01-13T10:48:15.017Z,13.92
2023-01-13T10:50:44.306Z,14.04
2023-01-13T10:53:23.946Z,14.15
2023-01-13T10:56:05.325Z,14.24
2023-01-13T10:58:33.047Z,14.36
2023-01-13T11:01:06.255Z,14.29
2023-01-13T11:03:43.112Z,14.37
2023-01-13T11:06:21.293Z,14.48
2023-01-13T11:08:51.349Z,14.63
2023-01-13T11:11:43.322Z,14.68
2023-01-13T11:14:37.111Z,14.58
2023-01-13T11:17:46.501Z,14.70
2023-01-13T11:20:41.322Z,14.73
2023-01-13T11:23:18.788Z,14.77
2023-01-13T11:25:53.119Z,14.90
2023-01-13T11:28:45.939Z,14.85
2023-01-13T11:31:39.836Z,14.64
2023-01-13T11:34:17.898Z,14.74
2023-01-13T11:36:53.512Z,14.61
2023-01-13T11:39:30.467Z,14.58
2023-01-13T11:42:21.493Z,14.40
2023-01-13T11:44:57.615Z,14.36
2023-01-13T11:47:27.128Z,14.38
2023-01-13T11:49:55.026Z,14.51
2023-01-13T11:52:28.269Z,14.62
2023-01-13T11:55:39.902Z,14.87
2023-01-13T11:58:13.097Z,14.71
2023-01-13T12:01:06.614Z,14.67
2023-01-13T12:03:41.613Z,14.43
2023-01-13T12:06:28.266Z,14.18
2023-01-13T12:08:55.730Z,14.16
2023-01-13T12:11:25.734Z,14.01
2023-01-13T12:14:02.310Z,14.02
2023-01-13T12:16:31.771Z,14.04
2023-01-13T12:19:30.716Z,14.10
2023-01-13T12:22:02.155Z,14.14
2023-01-13T12:24:38.259Z,14.15
2023-01-13T12:27:18.031Z,14.19
2023-01-13T12:29:49.240Z,14.09
2023-01-13T12:32:24.551Z,14.18
2023-01-13T12:35:16.703Z,14.32
2023-01-13T12:37:52.624Z,14.32
2023-01-13T12:40:47.148Z,14.16
2023-01-13T12:43:38.986Z,14.16
2023-01-13T12:46:23.629Z,14.20
2023-01-13T12:48:57.345Z,14.30
2023-01-13T12:51:56.975Z,14.38
2023-01-13T12:54:30.490Z,14.32
2023-01-13T12:56:59.252Z,14.08
2023-01-13T12:59:26.966Z,13.99
2023-01-13T13:02:13.274Z,13.93
2023-01-13T13:04:53.205Z,13.93
2023-01-13T13:07:32.157Z,13.94
2023-01-13T13:10:30.437Z,13.79
2023-01-13T13:13:19.817Z,13.72
2023-01-13T13:15:49.606Z,13.75
2023-01-13T13:18:16.991Z,13.77
2023-01-13T13:21:03.974Z,13.90
2023-01-13T13:24:04.183Z,13.95
2023-01-13T13:26:37.550Z,13.94
2023-01-13T13:29:12.214Z,13.80
2023-01-13T13:31:57.571Z,13.75
2023-01-13T13:34:32.655Z,13.67
2023-01-13T13:37:30.796Z,13.54
2023-01-13T13:40:16.997Z,13.56
2023-01-13T13:43:06.438Z,13.68
2023-01-13T13:45:52.600Z,13.75
2023-01-13T13:48:21.388Z,13.90
2023-01-13T13:50:50.941Z,13.96
2023-01-13T13:53:20.123Z,13.98
2023-01-13T13:55:57.325Z,13.95
2023-01-13T13:58:26.623Z,14.02
2023-01-13T14:00:54.894Z,13.95
2023-01-13T14:03:29.526Z,13.91
2023-01-13T14:06:02.857Z,13.89
2023-01-13T14:08:37.201Z,13.84
2023-01-13T14:11:37.219Z,13.63
2023-01-13T14:14:14.574Z,13.70
2023-01-13T14:16:42.166Z,13.73
2023-01-13T14:19:33.325Z,13.63
2023-01-13T14:22:02.955Z,13.67
2023-01-13T14:24:31.747Z,13.67
2023-01-13T14:27:18.885Z,13.69
2023-01-13T14:29:47.060Z,13.62
2023-01-13T14:32:19.929Z,13.57
2023-01-13T14:34:47.652Z,13.46
2023-01-13T14:37:32.245Z,13.36
2023-01-13T14:39:59.784Z,13.26
2023-01-13T14:42:28.668Z,13.11
2023-01-13T14:44:56.446Z,13.10
2023-01-13T14:47:33.780Z,13.08
2023-01-13T14:50:22.089Z,12.98
2023-01-13T14:52:54.676Z,12.97
2023-01-13T14:55:40.964Z,12.96
2023-01-13T14:58:31.027Z,12.97
2023-01-13T15:01:29.068Z,13.01
2023-01-13T15:04:26.907Z,12.97
2023-01-13T15:06:56.679Z,12.89
2023-01-13T15:09:38.614Z,12.89
2023-01-13T15:12:39.559Z,12.91
2023-01-13T15:15:22.546Z,12.94
2023-01-13T15:17:50.149Z,12.88
2023-01-13T15:20:20.670Z,12.80
2023-01-13T15:22:49.158Z,12.83
2023-01-13T15:25:17.826Z,12.82
2023-01-13T15:27:47.899Z,12.73
2023-01-13T15:30:19.074Z,12.73
2023-01-13T15:32:46.968Z,12.73
2023-01-13T15:35:16.011Z,12.74
2023-01-13T15:37:44.738Z,12.75
2023-01-13T15:40:18.648Z,12.70
2023-01-13T15:43:05.169Z,12.73
2023-01-13T15:45:53.985Z,12.86
2023-01-13T15:48:23.448Z,12.91
2023-01-13T15:50:51.633Z,12.77
2023-01-13T15:53:19.312Z,12.81
2023-01-13T15:55:51.082Z,12.79
2023-01-13T15:58:24.183Z,12.75
2023-01-13T16:00:51.696Z,12.68
2023-01-13T16:03:19.387Z,12.66
2023-01-13T16:05:46.925Z,12.66
2023-01-13T16:08:22.895Z,12.68
2023-01-13T16:10:50.834Z,12.60
2023-01-13T16:13:18.506Z,12.52
2023-01-13T16:15:49.243Z,12.45
2023-01-13T16:18:19.760Z,12.46
2023-01-13T16:20:47.685Z,12.47
2023-01-13T16:23:15.169Z,12.49
2023-01-13T16:25:45.040Z,12.44
2023-01-13T16:28:21.280Z,12.35
2023-01-13T16:30:49.079Z,12.33
2023-01-13T16:33:17.341Z,12.25
2023-01-13T16:36:10.787Z,12.29
2023-01-13T16:38:32.326Z,12.22
2023-01-13T16:40:59.831Z,12.13
2023-01-13T16:43:27.945Z,12.04
2023-01-13T16:45:55.464Z,12.01
2023-01-13T16:48:23.053Z,11.99
2023-01-13T16:50:50.608Z,11.93
2023-01-13T16:53:18.210Z,11.86
2023-01-13T16:55:45.726Z,11.85
2023-01-13T16:58:23.623Z,11.90
2023-01-13T17:00:54.335Z,11.90
2023-01-13T17:03:22.101Z,11.72
2023-01-13T17:05:49.528Z,11.73
2023-01-13T17:08:18.255Z,11.58
2023-01-13T17:10:47.083Z,11.54
2023-01-13T17:13:16.932Z,11.46
2023-01-13T17:15:45.967Z,11.52
2023-01-13T17:18:13.705Z,11.29
2023-01-13T17:20:41.697Z,11.34
2023-01-13T17:23:09.521Z,11.33
2023-01-13T17:25:37.278Z,11.30
2023-01-13T17:28:05.009Z,11.43
2023-01-13T17:30:32.733Z,11.31
2023-01-13T17:33:00.260Z,11.37
2023-01-13T17:35:27.827Z,11.32
2023-01-13T17:37:55.319Z,11.30
2023-01-13T17:40:23.040Z,11.32
2023-01-13T17:42:50.565Z,11.28
2023-01-13T17:45:18.253Z,11.33
2023-01-13T17:47:47.414Z,11.39
2023-01-13T17:50:22.343Z,11.35
2023-01-13T17:52:50.015Z,11.26
2023-01-13T17:55:17.541Z,11.41
2023-01-13T17:57:44.984Z,11.48
2023-01-13T18:00:12.856Z,11.25
2023-01-13T18:02:40.285Z,11.30
2023-01-13T18:05:08.012Z,11.32
2023-01-13T18:07:35.520Z,11.32
2023-01-13T18:10:02.855Z,11.22
2023-01-13T18:12:30.383Z,11.20
2023-01-13T18:14:57.804Z,11.23
2023-01-13T18:17:25.264Z,11.23
2023-01-13T18:20:11.127Z,11.18
2023-01-13T18:22:57.292Z,11.20
2023-01-13T18:25:43.811Z,11.18
2023-01-13T18:28:11.425Z,11.20
2023-01-13T18:30:38.841Z,11.18
2023-01-13T18:33:06.422Z,11.12
2023-01-13T18:35:40.271Z,11.23
2023-01-13T18:38:08.578Z,11.23
2023-01-13T18:40:36.024Z,11.24
2023-01-13T18:43:03.547Z,11.21
2023-01-13T18:45:32.099Z,11.24
2023-01-13T18:48:02.327Z,11.20
2023-01-13T18:50:31.060Z,11.28
2023-01-13T18:52:58.744Z,11.32
2023-01-13T18:55:28.599Z,11.27
2023-01-13T18:57:56.884Z,11.17
2023-01-13T19:00:25.417Z,11.31
2023-01-13T19:05:35.940Z,11.02
2023-01-13T19:08:04.491Z,11.06
2023-01-13T19:10:32.788Z,11.08
2023-01-13T19:13:01.713Z,11.13
2023-01-13T19:15:29.555Z,10.92
2023-01-13T19:17:57.308Z,10.91
2023-01-13T19:20:24.963Z,10.92
2023-01-13T19:22:54.540Z,10.86
2023-01-13T19:25:22.185Z,10.89
2023-01-13T19:27:49.648Z,10.92
2023-01-13T19:30:17.570Z,10.98
2023-01-13T19:32:44.987Z,11.10
2023-01-13T19:35:13.269Z,11.10
2023-01-13T19:37:40.943Z,10.98
2023-01-13T19:40:15.825Z,11.05
2023-01-13T19:43:04.853Z,11.03
2023-01-13T19:45:35.201Z,10.98
2023-01-13T19:48:05.331Z,10.94
2023-01-13T19:50:37.649Z,11.04
2023-01-13T19:53:06.051Z,10.98
2023-01-13T19:55:33.784Z,11.04
2023-01-13T19:58:01.531Z,11.10
2023-01-13T20:00:29.250Z,11.10
2023-01-13T20:03:00.757Z,11.07
2023-01-13T20:05:28.953Z,11.22
2023-01-13T20:07:56.670Z,11.21
2023-01-13T20:10:25.038Z,11.29
2023-01-13T20:12:52.885Z,11.17
2023-01-13T20:15:20.773Z,11.15
2023-01-13T20:17:48.257Z,11.19
2023-01-13T20:20:16.981Z,11.23
2023-01-13T20:22:45.119Z,11.30
2023-01-13T20:25:17.045Z,11.32
2023-01-13T20:27:46.063Z,11.35
2023-01-13T20:30:14.583Z,11.32
2023-01-13T20:32:43.941Z,11.41
2023-01-13T20:35:12.102Z,11.38
2023-01-13T20:37:41.711Z,11.40
2023-01-13T20:40:13.055Z,11.44
2023-01-13T20:42:49.478Z,11.33
2023-01-13T20:45:20.434Z,11.34
2023-01-13T20:47:48.235Z,11.32
2023-01-13T20:50:16.069Z,11.48
2023-01-13T20:52:44.218Z,11.42
2023-01-13T20:55:12.581Z,11.32
2023-01-13T20:57:41.646Z,11.38
2023-01-13T21:00:16.868Z,11.45
2023-01-13T21:02:44.627Z,11.47
2023-01-13T21:05:12.170Z,11.44
2023-01-13T21:07:39.702Z,11.35
2023-01-13T21:10:07.990Z,11.26
2023-01-13T21:12:53.881Z,11.30
2023-01-13T21:15:22.865Z,11.42
2023-01-13T21:18:10.373Z,11.26
2023-01-13T21:20:39.151Z,11.38
2023-01-13T21:23:06.825Z,11.34
2023-01-13T21:25:36.457Z,11.32
2023-01-13T21:28:07.789Z,11.32
2023-01-13T21:30:38.287Z,11.30
2023-01-13T21:33:06.485Z,11.32
2023-01-13T21:35:37.857Z,11.25
2023-01-13T21:38:05.343Z,11.22
2023-01-13T21:40:32.802Z,11.23
2023-01-13T21:43:19.268Z,11.27
2023-01-13T21:46:05.703Z,11.19
2023-01-13T21:48:33.227Z,11.27
2023-01-13T21:51:01.405Z,11.30
2023-01-13T21:53:28.977Z,11.35
2023-01-13T21:55:56.645Z,11.34
2023-01-13T21:58:24.245Z,11.28
2023-01-13T22:00:51.681Z,11.28
2023-01-13T22:03:20.200Z,11.35
2023-01-13T22:05:54.692Z,11.32
2023-01-13T22:08:22.299Z,11.28
2023-01-13T22:10:57.781Z,11.26
2023-01-13T22:13:45.846Z,11.17
2023-01-13T22:16:14.450Z,11.26
2023-01-13T22:18:41.915Z,11.22
2023-01-13T22:21:09.688Z,11.19
2023-01-13T22:23:37.059Z,11.24
2023-01-13T22:26:05.343Z,11.37
2023-01-13T22:28:40.940Z,11.24
2023-01-13T22:31:13.316Z,11.22
2023-01-13T22:33:42.187Z,11.30
2023-01-13T22:36:15.349Z,11.34
2023-01-13T22:38:43.007Z,11.20
2023-01-13T22:41:11.024Z,11.21
2023-01-13T22:43:39.023Z,11.28
2023-01-13T22:46:11.730Z,11.17
2023-01-13T22:48:40.409Z,11.17
2023-01-13T22:51:10.011Z,11.25
2023-01-13T22:53:38.641Z,11.18
2023-01-13T22:56:06.949Z,11.16
2023-01-13T22:58:34.487Z,11.18
2023-01-13T23:01:13.107Z,11.26
2023-01-13T23:03:40.984Z,11.33
2023-01-13T23:06:08.475Z,11.25
2023-01-13T23:08:36.667Z,11.24
2023-01-13T23:11:06.477Z,11.27
2023-01-13T23:13:34.801Z,11.29
2023-01-13T23:16:08.123Z,11.16
2023-01-13T23:18:35.707Z,11.20
2023-01-13T23:21:13.284Z,11.20
2023-01-13T23:23:40.819Z,11.19
2023-01-13T23:26:09.395Z,11.07
2023-01-13T23:28:37.587Z,11.16
2023-01-13T23:31:14.236Z,11.06
2023-01-13T23:33:43.609Z,11.17
2023-01-13T23:36:16.374Z,11.08
2023-01-13T23:38:44.002Z,11.10
2023-01-13T23:41:15.229Z,11.04
2023-01-13T23:43:42.817Z,11.06
2023-01-13T23:46:12.714Z,11.02
2023-01-13T23:48:40.575Z,10.95
2023-01-13T23:51:10.963Z,10.95
2023-01-13T23:53:41.590Z,10.98
2023-01-13T23:56:13.813Z,10.95
2023-01-13T23:58:42.669Z,10.95
